Time;durP1;ratioP1;P1;durP2;ratioP2;P2;SDS_P1;SDS_P2;PMS_P1;PMS_P2;Temp;Humidity;BMP_temperature;BMP_pressure;BME280_temperature;BME280_humidity;BME280_pressure;Samples;Min_cycle;Max_cycle;Signal;HPM_P1;HPM_P2
2022/08/30 00:02:56;;;;;;;;;;;;;;;29.30;37.72;100646.55;104781;1305;62922;-84
2022/08/30 00:05:22;;;;;;;;;;;;;;;29.30;37.75;100646.21;104684;1305;62120;-83
2022/08/30 00:07:49;;;;;;;;;;;;;;;29.30;37.67;100646.55;104847;1305;74108;-83
2022/08/30 00:10:15;;;;;;;;;;;;;;;29.29;37.63;100647.30;104651;1306;62099;-83
2022/08/30 00:12:42;;;;;;;;;;;;;;;29.29;37.61;100641.73;104702;1305;62096;-82
2022/08/30 00:15:08;;;;;;;;;;;;;;;29.29;37.51;100643.69;104785;1305;62553;-83
2022/08/30 00:17:33;;;;;;;;;;;;;;;29.29;37.48;100642.27;104840;1305;62110;-83
2022/08/30 00:19:59;;;;;;;;;;;;;;;29.29;37.57;100642.65;104807;1305;62101;-84
2022/08/30 00:22:24;;;;;;;;;;;;;;;29.29;37.60;100644.64;104892;1304;62053;-83
2022/08/30 00:24:50;;;;;;;;;;;;;;;29.29;37.52;100640.09;104807;1305;61962;-83
2022/08/30 00:27:15;;;;;;;;;;;;;;;29.29;37.68;100638.67;104681;1306;62167;-82
2022/08/30 00:29:41;;;;;;;;;;;;;;;29.29;37.46;100640.84;104748;1305;62181;-83
2022/08/30 00:32:06;;;;;;;;;;;;;;;29.28;37.73;100633.46;104845;1305;62271;-83
2022/08/30 00:34:33;;;;;;;;;;;;;;;29.28;37.58;100633.67;104798;1305;62009;-84
2022/08/30 00:36:59;;;;;;;;;;;;;;;29.28;37.81;100631.12;104861;1303;62090;-84
2022/08/30 00:39:24;;;;;;;;;;;;;;;29.28;37.67;100633.45;104743;1305;62005;-84
2022/08/30 00:41:49;;;;;;;;;;;;;;;29.28;37.69;100634.42;104849;1305;62073;-84
2022/08/30 00:44:15;;;;;;;;;;;;;;;29.28;37.66;100631.19;104631;1305;62201;-82
2022/08/30 00:46:41;;;;;;;;;;;;;;;29.28;37.47;100628.85;104817;1305;62673;-82
2022/08/30 00:49:06;;;;;;;;;;;;;;;29.27;37.71;100634.83;104917;1305;62179;-84
2022/08/30 00:51:33;;;;;;;;;;;;;;;29.28;37.50;100636.25;104796;1305;62210;-83
2022/08/30 00:53:58;;;;;;;;;;;;;;;29.28;37.52;100638.09;104799;1305;62040;-84
2022/08/30 00:56:24;;;;;;;;;;;;;;;29.28;37.54;100638.42;104856;1305;62083;-83
2022/08/30 00:58:51;;;;;;;;;;;;;;;29.28;37.56;100638.09;104788;1305;62113;-83
2022/08/30 01:01:17;;;;;;;;;;;;;;;29.27;37.60;100635.95;104784;1305;61958;-83
2022/08/30 01:03:43;;;;;;;;;;;;;;;29.27;37.85;100638.70;104833;1305;62100;-83
2022/08/30 01:06:09;;;;;;;;;;;;;;;29.27;37.52;100639.24;104771;1305;62176;-83
2022/08/30 01:08:34;;;;;;;;;;;;;;;29.26;37.82;100639.23;104831;1305;62111;-83
2022/08/30 01:11:00;;;;;;;;;;;;;;;29.26;37.51;100637.81;104692;1305;62189;-83
2022/08/30 01:13:25;;;;;;;;;;;;;;;29.26;37.77;100636.38;104802;1305;62077;-83
2022/08/30 01:15:51;;;;;;;;;;;;;;;29.26;37.82;100633.50;104876;1305;62106;-82
2022/08/30 01:18:17;;;;;;;;;;;;;;;29.26;37.80;100635.67;104706;1305;62097;-82
2022/08/30 01:20:49;;;;;;;;;;;;;;;29.26;37.87;100636.97;104792;1305;61968;-82
2022/08/30 01:23:15;;;;;;;;;;;;;;;29.26;37.81;100638.60;104716;1305;62070;-83
2022/08/30 01:25:41;;;;;;;;;;;;;;;29.26;37.84;100635.15;104779;1305;62180;-83
2022/08/30 01:28:08;;;;;;;;;;;;;;;29.25;37.82;100629.03;104793;1305;62075;-84
2022/08/30 01:30:34;;;;;;;;;;;;;;;29.25;37.87;100630.30;104807;1305;62046;-83
2022/08/30 01:33:00;;;;;;;;;;;;;;;29.25;37.81;100629.20;104846;1305;62153;-83
2022/08/30 01:35:26;;;;;;;;;;;;;;;29.24;37.84;100626.56;104859;1305;62116;-83
2022/08/30 01:37:51;;;;;;;;;;;;;;;29.25;37.82;100622.02;104789;1305;62166;-83
2022/08/30 01:40:18;;;;;;;;;;;;;;;29.25;37.79;100623.42;104816;1303;62094;-84
2022/08/30 01:42:44;;;;;;;;;;;;;;;29.25;37.83;100621.07;104887;1305;62009;-82
2022/08/30 01:45:10;;;;;;;;;;;;;;;29.24;37.78;100618.27;104603;1307;62259;-83
2022/08/30 01:47:36;;;;;;;;;;;;;;;29.25;37.88;100618.55;104875;1304;62194;-83
2022/08/30 01:50:02;;;;;;;;;;;;;;;29.24;38.06;100618.85;104713;1305;76729;-84
2022/08/30 01:52:28;;;;;;;;;;;;;;;29.24;37.85;100622.63;104703;1305;61997;-83
2022/08/30 01:54:54;;;;;;;;;;;;;;;29.24;37.97;100619.70;104796;1305;62145;-83
2022/08/30 01:57:20;;;;;;;;;;;;;;;29.24;37.91;100618.48;104795;1305;62052;-83
2022/08/30 01:59:48;;;;;;;;;;;;;;;29.24;37.70;100619.98;104723;1305;62195;-83
2022/08/30 02:02:15;;;;;;;;;;;;;;;29.23;38.10;100616.75;104803;1305;61987;-84
2022/08/30 02:04:41;;;;;;;;;;;;;;;29.24;37.79;100632.64;104771;1305;61926;-84
2022/08/30 02:07:06;;;;;;;;;;;;;;;29.24;37.95;100664.00;104801;1305;62098;-83
2022/08/30 02:09:32;;;;;;;;;;;;;;;29.23;37.79;100641.77;104789;1305;62184;-83
2022/08/30 02:11:57;;;;;;;;;;;;;;;29.23;38.18;100664.21;104795;1304;62306;-82
2022/08/30 02:14:23;;;;;;;;;;;;;;;29.23;37.84;100663.50;104769;1305;62091;-83
2022/08/30 02:16:48;;;;;;;;;;;;;;;29.23;37.85;100663.53;104690;1305;62154;-84
2022/08/30 02:19:14;;;;;;;;;;;;;;;29.22;37.87;100662.86;104648;1305;62093;-84
2022/08/30 02:21:39;;;;;;;;;;;;;;;29.23;38.10;100669.00;104641;1305;62105;-84
2022/08/30 02:24:06;;;;;;;;;;;;;;;29.23;38.11;100670.10;104773;1305;62075;-83
2022/08/30 02:26:31;;;;;;;;;;;;;;;29.23;37.98;100677.17;104661;1305;62132;-83
2022/08/30 02:28:57;;;;;;;;;;;;;;;29.22;37.85;100673.56;104613;1307;62118;-83
2022/08/30 02:31:22;;;;;;;;;;;;;;;29.22;37.95;100673.59;104506;1308;73036;-85
2022/08/30 02:33:49;;;;;;;;;;;;;;;29.22;38.04;100679.23;104768;1305;62167;-82
2022/08/30 02:36:15;;;;;;;;;;;;;;;29.22;38.15;100675.42;104830;1305;60538;-84
2022/08/30 02:38:40;;;;;;;;;;;;;;;29.22;38.13;100678.72;104586;1305;62076;-83
2022/08/30 02:41:06;;;;;;;;;;;;;;;29.21;38.08;100680.74;104634;1305;62215;-83
2022/08/30 02:43:31;;;;;;;;;;;;;;;29.21;38.06;100689.62;104652;1305;62086;-82
2022/08/30 02:45:56;;;;;;;;;;;;;;;29.21;38.13;100695.26;104638;1305;76569;-83
2022/08/30 02:48:23;;;;;;;;;;;;;;;29.21;38.01;100695.30;104776;1305;62019;-83
2022/08/30 02:50:49;;;;;;;;;;;;;;;29.21;38.01;100699.85;104556;1304;62709;-83
2022/08/30 02:53:14;;;;;;;;;;;;;;;29.21;38.01;100706.38;104568;1307;62041;-83
2022/08/30 02:55:40;;;;;;;;;;;;;;;29.21;38.04;100706.92;104807;1305;62089;-83
2022/08/30 02:58:06;;;;;;;;;;;;;;;29.20;38.06;100715.66;104649;1305;62082;-83
2022/08/30 03:00:31;;;;;;;;;;;;;;;29.20;38.17;100717.96;104693;1305;62077;-83
2022/08/30 03:02:57;;;;;;;;;;;;;;;29.20;37.97;100719.63;104776;1305;62074;-84
2022/08/30 03:05:23;;;;;;;;;;;;;;;29.20;38.12;100723.12;102560;1305;2771851;-83
2022/08/30 03:07:48;;;;;;;;;;;;;;;29.20;38.15;100726.59;104414;1308;60162;-83
2022/08/30 03:10:14;;;;;;;;;;;;;;;29.20;38.07;100731.82;104417;1308;62119;-83
2022/08/30 03:12:40;;;;;;;;;;;;;;;29.20;37.96;100730.90;104367;1307;62098;-83
2022/08/30 03:15:06;;;;;;;;;;;;;;;29.20;38.42;100739.23;104458;1305;62213;-83
2022/08/30 03:17:31;;;;;;;;;;;;;;;29.20;38.23;100744.46;104579;1305;62103;-82
2022/08/30 03:20:00;;;;;;;;;;;;;;;29.20;38.16;100744.84;104592;1306;62229;-83
2022/08/30 03:22:27;;;;;;;;;;;;;;;29.20;38.34;100749.91;104592;1305;62424;-85
2022/08/30 03:24:56;;;;;;;;;;;;;;;29.21;38.36;100748.78;104660;1305;62177;-84
2022/08/30 03:27:22;;;;;;;;;;;;;;;29.20;38.35;100752.45;104503;1305;73706;-82
2022/08/30 03:29:47;;;;;;;;;;;;;;;29.20;38.33;100753.70;104607;1305;62086;-83
2022/08/30 03:32:14;;;;;;;;;;;;;;;29.20;38.23;100762.06;104585;1305;62134;-82
2022/08/30 03:34:39;;;;;;;;;;;;;;;29.20;38.33;100760.61;104396;1305;62058;-83
2022/08/30 03:37:05;;;;;;;;;;;;;;;29.20;38.35;100763.84;104355;1305;62125;-81
2022/08/30 03:39:30;;;;;;;;;;;;;;;29.20;38.46;100765.30;104668;1305;62102;-83
2022/08/30 03:41:56;;;;;;;;;;;;;;;29.20;38.27;100768.18;104474;1305;76732;-82
2022/08/30 03:44:21;;;;;;;;;;;;;;;29.19;38.40;100767.39;104659;1305;62101;-83
2022/08/30 03:46:47;;;;;;;;;;;;;;;29.18;38.22;100772.26;104660;1306;62271;-83
2022/08/30 03:49:12;;;;;;;;;;;;;;;29.18;38.42;100774.11;104639;1305;62413;-82
2022/08/30 03:51:38;;;;;;;;;;;;;;;29.17;38.17;100776.94;104701;1305;63479;-84
2022/08/30 03:54:03;;;;;;;;;;;;;;;29.16;37.95;100777.41;104653;1305;62095;-83
2022/08/30 03:56:29;;;;;;;;;;;;;;;29.14;38.07;100780.83;104581;1305;62180;-84
2022/08/30 03:58:54;;;;;;;;;;;;;;;29.13;37.96;100781.16;104875;1305;62193;-82
2022/08/30 04:01:20;;;;;;;;;;;;;;;29.12;37.81;100782.52;104854;1305;62224;-84
2022/08/30 04:03:45;;;;;;;;;;;;;;;29.11;37.84;100786.79;104881;1305;62080;-84
2022/08/30 04:06:11;;;;;;;;;;;;;;;29.08;37.65;100785.20;104650;1305;75440;-82
2022/08/30 04:08:37;;;;;;;;;;;;;;;29.08;37.54;100793.20;104671;1305;62152;-82
2022/08/30 04:11:03;;;;;;;;;;;;;;;29.08;37.55;100793.61;104636;1305;62505;-82
2022/08/30 04:13:28;;;;;;;;;;;;;;;29.08;37.60;100793.41;104557;1305;62265;-83
2022/08/30 04:15:54;;;;;;;;;;;;;;;29.07;37.47;100794.39;104636;1305;62123;-83
2022/08/30 04:18:20;;;;;;;;;;;;;;;29.08;37.55;100794.70;104690;1306;62001;-83
2022/08/30 04:20:46;;;;;;;;;;;;;;;29.07;37.46;100797.14;104633;1305;61988;-84
2022/08/30 04:23:11;;;;;;;;;;;;;;;29.07;37.48;100803.09;104644;1306;62190;-83
2022/08/30 04:25:37;;;;;;;;;;;;;;;29.07;37.34;100805.14;104817;1305;62124;-83
2022/08/30 04:28:03;;;;;;;;;;;;;;;29.07;37.25;100807.65;104875;1305;62253;-82
2022/08/30 04:30:29;;;;;;;;;;;;;;;29.07;37.33;100809.67;104567;1305;62141;-84
2022/08/30 04:32:54;;;;;;;;;;;;;;;29.06;37.23;100813.14;104701;1305;62263;-82
2022/08/30 04:35:20;;;;;;;;;;;;;;;29.06;37.14;100810.29;104651;1304;62003;-83
2022/08/30 04:37:45;;;;;;;;;;;;;;;29.06;37.30;100814.66;104855;1305;62742;-83
2022/08/30 04:40:11;;;;;;;;;;;;;;;29.06;37.35;100816.98;104642;1305;62099;-84
2022/08/30 04:42:36;;;;;;;;;;;;;;;29.06;37.01;100816.09;104839;1305;62200;-84
2022/08/30 04:45:04;;;;;;;;;;;;;;;29.06;37.08;100820.58;104693;1307;62224;-84
2022/08/30 04:47:29;;;;;;;;;;;;;;;29.06;37.12;100824.08;104611;1306;61972;-83
2022/08/30 04:49:55;;;;;;;;;;;;;;;29.06;37.07;100826.80;104655;1305;62213;-84
2022/08/30 04:52:21;;;;;;;;;;;;;;;29.06;37.14;100829.00;104634;1306;62229;-82
2022/08/30 04:54:46;;;;;;;;;;;;;;;29.06;37.08;100830.63;104612;1305;62069;-83
2022/08/30 04:57:12;;;;;;;;;;;;;;;29.05;37.04;100829.37;104863;1305;62079;-85
2022/08/30 04:59:37;;;;;;;;;;;;;;;29.05;37.14;100831.81;104866;1305;62260;-83
2022/08/30 05:02:03;;;;;;;;;;;;;;;29.05;37.20;100828.39;104675;1305;62197;-83
2022/08/30 05:04:28;;;;;;;;;;;;;;;29.05;37.11;100833.45;104825;1305;62103;-85
2022/08/30 05:06:54;;;;;;;;;;;;;;;29.04;37.06;100833.48;104867;1305;62101;-84
2022/08/30 05:09:20;;;;;;;;;;;;;;;29.04;37.29;100835.68;104819;1305;62111;-83
2022/08/30 05:11:46;;;;;;;;;;;;;;;29.04;36.95;100843.12;104770;1305;62201;-82
2022/08/30 05:14:11;;;;;;;;;;;;;;;29.04;36.84;100846.95;104719;1305;62069;-84
2022/08/30 05:16:37;;;;;;;;;;;;;;;29.04;36.86;100844.06;104594;1305;62079;-82
2022/08/30 05:19:02;;;;;;;;;;;;;;;29.03;36.97;100847.16;104757;1305;62098;-90
2022/08/30 05:21:28;;;;;;;;;;;;;;;29.04;36.91;100851.64;104519;1307;62146;-83
2022/08/30 05:23:55;;;;;;;;;;;;;;;29.04;36.99;100855.66;104591;1306;62101;-83
2022/08/30 05:26:21;;;;;;;;;;;;;;;29.04;36.95;100854.85;104772;1305;61962;-82
2022/08/30 05:28:48;;;;;;;;;;;;;;;29.04;37.01;100853.59;104627;1306;62315;-83
2022/08/30 05:31:18;;;;;;;;;;;;;;;29.04;37.04;100854.31;104567;1307;62091;-84
2022/08/30 05:33:44;;;;;;;;;;;;;;;29.04;37.10;100849.24;104611;1305;74543;-80
2022/08/30 05:36:09;;;;;;;;;;;;;;;29.04;36.83;100847.98;104501;1306;62239;-85
2022/08/30 05:38:35;;;;;;;;;;;;;;;29.03;36.95;100854.95;104630;1305;63839;-82
2022/08/30 05:41:02;;;;;;;;;;;;;;;29.03;36.83;100852.09;104561;1306;62168;-85
2022/08/30 05:43:27;;;;;;;;;;;;;;;29.02;36.90;100851.67;104602;1305;62097;-82
2022/08/30 05:46:04;;;;;;;;;;;;;;;29.00;36.81;100851.12;104493;1306;62220;-83
2022/08/30 05:48:29;;;;;;;;;;;;;;;29.00;36.88;100852.21;104617;1305;62348;-83
2022/08/30 05:51:02;;;;;;;;;;;;;;;29.01;36.99;100851.19;104592;1305;62188;-80
2022/08/30 05:53:27;;;;;;;;;;;;;;;29.02;36.78;100848.73;104553;1306;72995;-84
2022/08/30 05:55:53;;;;;;;;;;;;;;;29.03;36.82;100850.70;104519;1305;62110;-82
2022/08/30 05:58:20;;;;;;;;;;;;;;;29.02;36.93;100851.63;104602;1305;62064;-83
2022/08/30 06:00:45;;;;;;;;;;;;;;;29.01;36.89;100851.06;104461;1306;62081;-82
2022/08/30 06:03:11;;;;;;;;;;;;;;;29.00;37.12;100848.77;104442;1305;62087;-82
2022/08/30 06:05:37;;;;;;;;;;;;;;;28.99;37.01;100846.77;104380;1305;62209;-83
2022/08/30 06:08:02;;;;;;;;;;;;;;;28.98;37.05;100848.52;104536;1306;63269;-82
2022/08/30 06:10:28;;;;;;;;;;;;;;;28.98;37.00;100847.98;104462;1307;62080;-81
2022/08/30 06:12:53;;;;;;;;;;;;;;;28.98;36.86;100849.61;104499;1307;62101;-83
2022/08/30 06:15:19;;;;;;;;;;;;;;;28.99;36.90;100852.70;104520;1306;62090;-82
2022/08/30 06:17:44;;;;;;;;;;;;;;;29.00;37.19;100854.92;104731;1305;62083;-83
2022/08/30 06:20:10;;;;;;;;;;;;;;;28.99;37.02;100853.20;104800;1305;62101;-81
2022/08/30 06:22:37;;;;;;;;;;;;;;;29.00;37.04;100853.17;104566;1306;62744;-82
2022/08/30 06:25:03;;;;;;;;;;;;;;;29.02;37.16;100855.84;104493;1306;61937;-81
2022/08/30 06:27:30;;;;;;;;;;;;;;;29.03;37.14;100857.56;104711;1305;62168;-81
2022/08/30 06:29:56;;;;;;;;;;;;;;;29.03;37.05;100865.68;104665;1305;75493;-82
2022/08/30 06:32:21;;;;;;;;;;;;;;;29.03;37.04;100862.66;104702;1305;62118;-82
2022/08/30 06:34:47;;;;;;;;;;;;;;;29.01;37.22;100865.54;104662;1305;62115;-83
2022/08/30 06:37:13;;;;;;;;;;;;;;;29.00;37.32;100868.67;104773;1305;61986;-81
2022/08/30 06:39:38;;;;;;;;;;;;;;;29.00;37.21;100865.89;104497;1305;62148;-83
2022/08/30 06:42:05;;;;;;;;;;;;;;;28.99;37.34;100867.95;104653;1305;62182;-82
2022/08/30 06:44:30;;;;;;;;;;;;;;;28.98;37.24;100869.08;104731;1305;63303;-81
2022/08/30 06:46:56;;;;;;;;;;;;;;;28.98;37.27;100869.70;104666;1305;60222;-82
2022/08/30 06:49:21;;;;;;;;;;;;;;;28.98;37.15;100871.48;104624;1305;62128;-84
2022/08/30 06:51:47;;;;;;;;;;;;;;;28.98;37.50;100869.86;104551;1306;62255;-82
2022/08/30 06:54:12;;;;;;;;;;;;;;;28.99;37.30;100872.48;104565;1305;62268;-82
2022/08/30 06:56:39;;;;;;;;;;;;;;;29.00;37.14;100871.66;104496;1305;62263;-81
2022/08/30 06:59:04;;;;;;;;;;;;;;;29.01;37.51;100870.45;104660;1305;62074;-83
2022/08/30 07:01:30;;;;;;;;;;;;;;;29.02;37.29;100865.95;104572;1305;62095;-84
2022/08/30 07:03:56;;;;;;;;;;;;;;;29.04;37.38;100867.21;104475;1306;62466;-82
2022/08/30 07:06:21;;;;;;;;;;;;;;;29.04;37.49;100870.67;104486;1306;62249;-83
2022/08/30 07:08:48;;;;;;;;;;;;;;;29.02;37.50;100868.29;104598;1305;62137;-83
2022/08/30 07:11:14;;;;;;;;;;;;;;;28.98;37.53;100864.96;104568;1306;62101;-84
2022/08/30 07:13:39;;;;;;;;;;;;;;;28.94;37.68;100866.63;104776;1304;62101;-83
2022/08/30 07:16:09;;;;;;;;;;;;;;;28.88;37.67;100865.92;104762;1305;76491;-84
2022/08/30 07:18:50;;;;;;;;;;;;;;;28.85;37.73;100867.39;104302;1306;62029;-88
2022/08/30 07:21:17;;;;;;;;;;;;;;;28.83;37.72;100864.84;104844;1296;61941;-83
2022/08/30 07:23:43;;;;;;;;;;;;;;;28.81;37.81;100861.42;104782;1303;74268;-83
2022/08/30 07:26:11;;;;;;;;;;;;;;;28.81;38.18;100863.05;104816;1303;63357;-85
2022/08/30 07:28:37;;;;;;;;;;;;;;;28.77;37.96;100856.80;104861;1302;61925;-86
2022/08/30 07:31:03;;;;;;;;;;;;;;;28.76;38.12;100856.30;104791;1303;61948;-83
2022/08/30 07:33:28;;;;;;;;;;;;;;;28.79;38.50;100860.77;104786;1303;62114;-83
2022/08/30 07:35:58;;;;;;;;;;;;;;;28.82;38.53;100856.16;105731;1303;75616;-83
2022/08/30 07:38:24;;;;;;;;;;;;;;;28.79;38.31;100854.79;105302;1301;62046;-82
2022/08/30 07:40:50;;;;;;;;;;;;;;;28.77;38.56;100860.24;104699;1303;64163;-82
2022/08/30 07:43:15;;;;;;;;;;;;;;;28.75;38.76;100855.55;104674;1303;62104;-83
2022/08/30 07:45:41;;;;;;;;;;;;;;;28.77;38.88;100853.20;104656;1302;62284;-82
2022/08/30 07:48:07;;;;;;;;;;;;;;;28.79;38.78;100857.50;104788;1303;62304;-82
2022/08/30 07:50:33;;;;;;;;;;;;;;;28.80;38.68;100859.58;104743;1302;61998;-83
2022/08/30 07:52:59;;;;;;;;;;;;;;;28.81;38.70;100859.45;104631;1303;62165;-83
2022/08/30 07:55:24;;;;;;;;;;;;;;;28.82;38.76;100858.64;104582;1303;62078;-83
2022/08/30 07:57:51;;;;;;;;;;;;;;;28.84;38.74;100857.20;104759;1303;62139;-84
2022/08/30 08:00:16;;;;;;;;;;;;;;;28.83;38.72;100857.47;104734;1305;62091;-82
2022/08/30 08:02:42;;;;;;;;;;;;;;;28.82;38.43;100860.61;104606;1303;60229;-84
2022/08/30 08:05:09;;;;;;;;;;;;;;;28.82;38.72;100859.87;104694;1303;62115;-83
2022/08/30 08:07:35;;;;;;;;;;;;;;;28.81;38.33;100859.69;104749;1303;72535;-84
2022/08/30 08:10:01;;;;;;;;;;;;;;;28.80;38.53;100861.19;104693;1303;62171;-83
2022/08/30 08:12:27;;;;;;;;;;;;;;;28.81;38.41;100860.36;104753;1303;62072;-84
2022/08/30 08:14:53;;;;;;;;;;;;;;;28.84;38.48;100859.31;104711;1302;62055;-83
2022/08/30 08:17:18;;;;;;;;;;;;;;;28.87;38.52;100860.68;104587;1303;62181;-83
2022/08/30 08:19:44;;;;;;;;;;;;;;;28.88;38.41;100857.12;104659;1305;60248;-80
2022/08/30 08:22:10;;;;;;;;;;;;;;;28.88;38.38;100855.98;104696;1305;77105;-82
2022/08/30 08:24:36;;;;;;;;;;;;;;;28.90;38.33;100860.50;104664;1304;62086;-82
2022/08/30 08:27:02;;;;;;;;;;;;;;;28.94;38.41;100859.23;104689;1305;62080;-83
2022/08/30 08:29:28;;;;;;;;;;;;;;;28.97;38.38;100856.39;104687;1305;62251;-82
2022/08/30 08:31:53;;;;;;;;;;;;;;;28.99;38.39;100860.86;104684;1305;62148;-82
2022/08/30 08:34:22;;;;;;;;;;;;;;;29.01;38.21;100851.44;104617;1303;62215;-82
2022/08/30 08:36:47;;;;;;;;;;;;;;;29.02;38.04;100850.23;104631;1305;61985;-81
2022/08/30 08:39:14;;;;;;;;;;;;;;;29.04;38.17;100851.14;104703;1305;62989;-82
2022/08/30 08:41:42;;;;;;;;;;;;;;;29.04;38.08;100850.66;104721;1306;62207;-82
2022/08/30 08:44:12;;;;;;;;;;;;;;;29.06;38.03;100855.09;104617;1305;75285;-82
2022/08/30 08:46:58;;;;;;;;;;;;;;;29.07;38.08;100846.77;104682;1305;62089;-83
2022/08/30 08:49:24;;;;;;;;;;;;;;;29.10;37.84;100851.00;104593;1305;62094;-84
2022/08/30 08:55:06;;;;;;;;;;;;;;;29.15;37.60;100851.91;104659;1305;75651;-82
2022/08/30 08:57:32;;;;;;;;;;;;;;;29.17;37.70;100850.05;104428;1304;61464;-80
2022/08/30 08:59:58;;;;;;;;;;;;;;;29.18;37.73;100851.08;104692;1304;62004;-81
2022/08/30 09:02:25;;;;;;;;;;;;;;;29.19;37.70;100852.06;104627;1304;62121;-82
2022/08/30 09:04:52;;;;;;;;;;;;;;;29.19;37.48;100851.46;104647;1305;60648;-82
2022/08/30 09:07:19;;;;;;;;;;;;;;;29.20;37.21;100851.25;104626;1302;62019;-82
2022/08/30 09:09:45;;;;;;;;;;;;;;;29.20;37.34;100849.36;104678;1302;62179;-82
2022/08/30 09:12:11;;;;;;;;;;;;;;;29.22;37.31;100848.85;104633;1303;62082;-81
2022/08/30 09:14:37;;;;;;;;;;;;;;;29.23;37.50;100849.52;104676;1306;62139;-82
2022/08/30 09:17:03;;;;;;;;;;;;;;;29.22;37.43;100846.62;104809;1302;62064;-82
2022/08/30 09:19:36;;;;;;;;;;;;;;;29.24;37.17;100847.77;104734;1302;62046;-82
2022/08/30 09:22:02;;;;;;;;;;;;;;;29.24;37.10;100844.79;104727;1303;73867;-82
2022/08/30 09:24:47;;;;;;;;;;;;;;;29.25;37.07;100834.00;104697;1302;62102;-82
2022/08/30 09:27:17;;;;;;;;;;;;;;;29.26;36.93;100828.71;104510;1305;62120;-82
2022/08/30 09:29:57;;;;;;;;;;;;;;;29.26;37.04;100829.77;104608;1305;62166;-81
2022/08/30 09:32:28;;;;;;;;;;;;;;;29.26;36.97;100830.45;104652;1305;72767;-83
2022/08/30 09:34:54;;;;;;;;;;;;;;;29.28;36.98;100827.48;104688;1305;75607;-82
2022/08/30 09:37:23;;;;;;;;;;;;;;;29.29;36.83;100826.60;104575;1303;62164;-85
2022/08/30 09:39:49;;;;;;;;;;;;;;;29.30;37.04;100826.25;104699;1305;61935;-82
2022/08/30 09:42:19;;;;;;;;;;;;;;;29.32;36.59;100821.23;104706;1304;62207;-83
2022/08/30 09:44:44;;;;;;;;;;;;;;;29.32;36.84;100822.83;104612;1305;75423;-84
2022/08/30 09:47:18;;;;;;;;;;;;;;;29.32;36.69;100822.41;104663;1305;62103;-80
2022/08/30 09:49:43;;;;;;;;;;;;;;;29.33;36.43;100816.92;104642;1305;62170;-82
2022/08/30 09:52:11;;;;;;;;;;;;;;;29.33;36.53;100812.70;104617;1304;62091;-81
2022/08/30 09:55:00;;;;;;;;;;;;;;;29.34;36.41;100809.55;104728;1303;76715;-83
2022/08/30 09:57:25;;;;;;;;;;;;;;;29.34;36.28;100812.58;104696;1302;61990;-83
2022/08/30 10:00:09;;;;;;;;;;;;;;;29.34;36.03;100813.70;104830;1302;62053;-82
2022/08/30 10:02:35;;;;;;;;;;;;;;;29.34;36.19;100812.06;104830;1302;74060;-81
2022/08/30 10:05:03;;;;;;;;;;;;;;;29.34;35.95;100810.33;104684;1303;62086;-82
2022/08/30 10:07:47;;;;;;;;;;;;;;;29.34;36.01;100811.52;104658;1304;61919;-81
2022/08/30 10:10:18;;;;;;;;;;;;;;;29.36;35.67;100810.98;104645;1303;61969;-81
2022/08/30 10:12:56;;;;;;;;;;;;;;;29.37;35.53;100805.08;104639;1305;73673;-83
2022/08/30 10:15:29;;;;;;;;;;;;;;;29.37;35.51;100803.24;104590;1305;75456;-83
2022/08/30 10:18:13;;;;;;;;;;;;;;;29.37;35.63;100798.89;104660;1303;62030;-82
2022/08/30 10:20:48;;;;;;;;;;;;;;;29.38;35.54;100800.83;104687;1303;62056;-81
2022/08/30 10:23:19;;;;;;;;;;;;;;;29.38;35.46;100800.09;104713;1305;73682;-82
2022/08/30 10:25:52;;;;;;;;;;;;;;;29.38;35.20;100797.13;104600;1305;76422;-82
2022/08/30 10:28:21;;;;;;;;;;;;;;;29.40;35.39;100797.88;104646;1305;61826;-83
2022/08/30 10:30:50;;;;;;;;;;;;;;;29.40;35.10;100788.02;104782;1304;62464;-83
2022/08/30 10:33:17;;;;;;;;;;;;;;;29.39;34.98;100784.30;104724;1304;74549;-82
2022/08/30 10:35:43;;;;;;;;;;;;;;;29.40;35.30;100783.36;104988;1304;76769;-81
2022/08/30 10:38:10;;;;;;;;;;;;;;;29.39;35.17;100781.77;104676;1305;62212;-81
2022/08/30 10:43:33;;;;;;;;;;;;;;;29.40;35.35;100770.34;104748;1303;72795;-82
2022/08/30 10:45:59;;;;;;;;;;;;;;;29.40;35.19;100771.77;104793;1303;76447;-80
2022/08/30 10:48:30;;;;;;;;;;;;;;;29.39;35.34;100769.09;104840;1302;62174;-81
2022/08/30 10:50:56;;;;;;;;;;;;;;;29.39;35.43;100766.91;104892;1303;62105;-84
2022/08/30 10:53:31;;;;;;;;;;;;;;;29.39;35.34;100767.09;104798;1303;62025;-83
2022/08/30 10:55:59;;;;;;;;;;;;;;;29.39;35.33;100763.13;105528;1302;75419;-82
2022/08/30 10:58:25;;;;;;;;;;;;;;;29.40;35.12;100760.52;105643;1304;59912;-82
2022/08/30 11:01:10;;;;;;;;;;;;;;;29.40;35.34;100758.89;105453;1305;62232;-82
2022/08/30 11:03:54;;;;;;;;;;;;;;;29.41;35.56;100754.78;104647;1305;73747;-82
2022/08/30 11:06:31;;;;;;;;;;;;;;;29.41;35.63;100754.20;104610;1304;75961;-82
2022/08/30 11:09:00;;;;;;;;;;;;;;;29.41;35.64;100748.00;104692;1304;61944;-81
2022/08/30 11:11:31;;;;;;;;;;;;;;;29.42;35.58;100744.69;104665;1303;62172;-82
2022/08/30 11:13:57;;;;;;;;;;;;;;;29.42;35.49;100740.16;104657;1304;72969;-83
2022/08/30 11:16:32;;;;;;;;;;;;;;;29.42;35.53;100737.79;104658;1304;62258;-83
2022/08/30 11:18:57;;;;;;;;;;;;;;;29.42;35.56;100729.23;104704;1304;61855;-83
2022/08/30 11:21:26;;;;;;;;;;;;;;;29.42;35.59;100723.44;104706;1304;62091;-83
2022/08/30 11:24:16;;;;;;;;;;;;;;;29.42;35.65;100722.39;104777;1304;71791;-81
2022/08/30 11:26:45;;;;;;;;;;;;;;;29.42;35.60;100717.84;104636;1305;75782;-80
2022/08/30 11:29:29;;;;;;;;;;;;;;;29.42;35.59;100717.13;104604;1305;62147;-81
2022/08/30 11:31:59;;;;;;;;;;;;;;;29.42;35.44;100715.69;104634;1305;61968;-81
2022/08/30 11:34:42;;;;;;;;;;;;;;;29.43;35.40;100710.91;104762;1303;74138;-80
2022/08/30 11:37:08;;;;;;;;;;;;;;;29.43;35.64;100708.33;104639;1304;76766;-80
2022/08/30 11:39:44;;;;;;;;;;;;;;;29.44;35.43;100703.71;104653;1305;62093;-83
2022/08/30 11:42:23;;;;;;;;;;;;;;;29.45;35.13;100700.58;104646;1304;62094;-80
2022/08/30 11:44:48;;;;;;;;;;;;;;;29.45;35.28;100696.69;104629;1302;72950;-82
2022/08/30 11:47:33;;;;;;;;;;;;;;;29.46;35.18;100693.05;104749;1302;60839;-83
2022/08/30 11:50:19;;;;;;;;;;;;;;;29.46;35.21;100690.48;104794;1302;61986;-81
2022/08/30 11:52:53;;;;;;;;;;;;;;;29.46;35.20;100681.97;104537;1302;61894;-82
2022/08/30 11:55:25;;;;;;;;;;;;;;;29.46;35.18;100682.09;104732;1302;74251;-82
2022/08/30 11:58:09;;;;;;;;;;;;;;;29.47;34.97;100675.86;105875;1302;75621;-82
2022/08/30 12:00:39;;;;;;;;;;;;;;;29.47;35.15;100678.14;105645;1302;59723;-82
2022/08/30 12:03:06;;;;;;;;;;;;;;;29.49;35.18;100671.79;104728;1302;62132;-82
2022/08/30 12:05:34;;;;;;;;;;;;;;;29.50;35.15;100675.84;104655;1303;74202;-82
2022/08/30 12:08:00;;;;;;;;;;;;;;;29.51;34.91;100671.45;104693;1303;77023;-82
2022/08/30 12:10:35;;;;;;;;;;;;;;;29.51;35.16;100673.21;104831;1302;61983;-83
2022/08/30 12:13:01;;;;;;;;;;;;;;;29.51;34.73;100668.30;104658;1302;62138;-80
2022/08/30 12:15:45;;;;;;;;;;;;;;;29.51;34.81;100668.32;104678;1303;62106;-81
2022/08/30 12:18:27;;;;;;;;;;;;;;;29.51;34.69;100663.03;104743;1302;76598;-83
2022/08/30 12:20:52;;;;;;;;;;;;;;;29.51;34.86;100658.73;104846;1302;62639;-82
2022/08/30 12:23:24;;;;;;;;;;;;;;;29.50;34.85;100652.84;104854;1302;62129;-83
2022/08/30 12:25:52;;;;;;;;;;;;;;;29.50;34.78;100655.61;104628;1305;72516;-82
2022/08/30 12:28:22;;;;;;;;;;;;;;;29.49;34.87;100654.90;104598;1304;75893;-81
2022/08/30 12:30:48;;;;;;;;;;;;;;;29.49;34.81;100650.41;104641;1305;62484;-80
2022/08/30 12:33:22;;;;;;;;;;;;;;;29.49;34.87;100643.38;104682;1305;62118;-80
2022/08/30 12:35:47;;;;;;;;;;;;;;;29.48;34.96;100638.23;104723;1305;75087;-81